createdAt,value
2023-07-02T00:00:07.492Z,69.78
2023-07-02T00:01:12.582Z,69.60
2023-07-02T00:02:16.014Z,69.63
2023-07-02T00:03:19.510Z,69.66
2023-07-02T00:04:21.844Z,69.87
2023-07-02T00:05:24.143Z,69.60
2023-07-02T00:06:27.615Z,69.41
2023-07-02T00:07:29.826Z,69.46
2023-07-02T00:08:32.329Z,69.40
2023-07-02T00:09:34.727Z,69.58
2023-07-02T00:10:37.192Z,69.90
2023-07-02T00:11:42.275Z,69.94
2023-07-02T00:12:44.656Z,70.55
2023-07-02T00:13:47.070Z,70.10
2023-07-02T00:14:49.993Z,70.10
2023-07-02T00:15:52.216Z,69.94
2023-07-02T00:16:54.741Z,69.84
2023-07-02T00:17:57.130Z,69.97
2023-07-02T00:18:59.754Z,70.10
2023-07-02T00:20:02.465Z,70.06
2023-07-02T00:21:06.345Z,70.22
2023-07-02T00:23:19.191Z,69.96
2023-07-02T00:24:21.706Z,69.77
2023-07-02T00:25:23.916Z,69.77
2023-07-02T00:26:28.247Z,69.73
2023-07-02T00:27:30.708Z,69.99
2023-07-02T00:28:33.713Z,70.29
2023-07-02T00:29:35.952Z,70.11
2023-07-02T00:30:38.937Z,70.00
2023-07-02T00:31:41.300Z,69.98
2023-07-02T00:32:43.665Z,69.93
2023-07-02T00:33:47.406Z,69.99
2023-07-02T00:34:49.805Z,70.16
2023-07-02T00:35:52.109Z,70.02
2023-07-02T00:36:54.595Z,70.08
2023-07-02T00:37:57.053Z,69.97
2023-07-02T00:38:59.596Z,69.95
2023-07-02T00:40:02.020Z,70.21
2023-07-02T00:41:04.721Z,70.23
2023-07-02T00:42:07.324Z,70.42
2023-07-02T00:43:09.802Z,70.25
2023-07-02T00:44:11.884Z,70.56
2023-07-02T00:45:14.167Z,70.20
2023-07-02T00:46:18.990Z,69.99
2023-07-02T00:47:22.547Z,70.17
2023-07-02T00:48:25.484Z,70.27
2023-07-02T00:49:28.073Z,70.14
2023-07-02T00:50:30.399Z,70.03
2023-07-02T00:51:32.753Z,70.03
2023-07-02T00:52:35.074Z,69.94
2023-07-02T00:53:38.285Z,70.09
2023-07-02T00:54:40.547Z,70.04
2023-07-02T00:55:43.002Z,70.39
2023-07-02T00:56:45.411Z,70.23
2023-07-02T00:57:47.936Z,69.95
2023-07-02T00:58:52.277Z,70.06
2023-07-02T00:59:54.752Z,70.20
2023-07-02T01:00:57.194Z,70.25
2023-07-02T01:01:59.663Z,70.21
2023-07-02T01:03:02.203Z,70.10
2023-07-02T01:04:07.392Z,70.19
2023-07-02T01:05:09.869Z,69.92
2023-07-02T01:06:13.230Z,69.77
2023-07-02T01:07:15.676Z,69.90
2023-07-02T01:08:18.105Z,69.99
2023-07-02T01:09:21.073Z,69.81
2023-07-02T01:10:23.452Z,69.82
2023-07-02T01:12:37.680Z,69.75
2023-07-02T01:13:40.035Z,70.37
2023-07-02T01:14:45.927Z,70.23
2023-07-02T01:15:49.866Z,70.22
2023-07-02T01:16:53.769Z,70.33
2023-07-02T01:17:57.565Z,70.23
2023-07-02T01:19:02.613Z,70.30
2023-07-02T01:20:07.386Z,70.27
2023-07-02T01:21:09.642Z,70.31
2023-07-02T01:22:13.595Z,70.33
2023-07-02T01:23:16.601Z,70.29
2023-07-02T01:24:19.734Z,70.26
2023-07-02T01:25:22.456Z,70.11
2023-07-02T01:26:27.196Z,70.03
2023-07-02T01:27:30.313Z,69.79
2023-07-02T01:28:37.171Z,70.06
2023-07-02T01:29:39.591Z,69.86
2023-07-02T01:30:41.893Z,69.83
2023-07-02T01:31:46.720Z,69.92
2023-07-02T01:32:50.545Z,69.92
2023-07-02T01:33:53.010Z,69.96
2023-07-02T01:34:55.287Z,70.04
2023-07-02T01:35:57.601Z,70.23
2023-07-02T01:37:01.178Z,70.27
2023-07-02T01:38:03.628Z,70.38
2023-07-02T01:39:08.542Z,70.35
2023-07-02T01:40:11.327Z,70.39
2023-07-02T01:41:13.791Z,70.51
2023-07-02T01:42:19.535Z,70.41
2023-07-02T01:43:21.916Z,70.29
2023-07-02T01:44:24.071Z,70.25
2023-07-02T01:45:26.520Z,70.19
2023-07-02T01:46:30.504Z,70.21
2023-07-02T01:47:33.362Z,70.21
2023-07-02T01:48:35.779Z,70.18
2023-07-02T01:49:38.142Z,70.28
2023-07-02T01:50:40.811Z,70.23
2023-07-02T01:51:53.256Z,70.00
2023-07-02T01:52:55.692Z,70.11
2023-07-02T01:53:58.381Z,70.34
2023-07-02T01:55:01.779Z,70.53
2023-07-02T01:56:04.447Z,70.30
2023-07-02T01:57:07.212Z,70.30
2023-07-02T01:58:10.674Z,70.43
2023-07-02T01:59:13.360Z,70.38
2023-07-02T02:00:16.543Z,70.44
2023-07-02T02:01:18.716Z,70.40
2023-07-02T02:02:21.199Z,70.45
2023-07-02T02:03:23.646Z,70.21
2023-07-02T02:04:26.197Z,70.26
2023-07-02T02:05:28.576Z,70.12
2023-07-02T02:06:31.568Z,70.21
2023-07-02T02:07:34.105Z,70.16
2023-07-02T02:08:37.021Z,70.21
2023-07-02T02:09:39.300Z,70.07
2023-07-02T02:10:41.809Z,70.09
2023-07-02T02:11:46.406Z,70.11
2023-07-02T02:12:48.858Z,70.07
2023-07-02T02:13:51.204Z,70.22
2023-07-02T02:14:53.911Z,70.21
2023-07-02T02:15:56.381Z,70.19
2023-07-02T02:16:59.258Z,70.23
2023-07-02T02:18:01.827Z,70.16
2023-07-02T02:19:05.095Z,70.15
2023-07-02T02:20:10.012Z,70.26
2023-07-02T02:21:12.298Z,70.19
2023-07-02T02:22:15.377Z,70.35
2023-07-02T02:23:17.734Z,70.37
2023-07-02T02:24:19.984Z,70.48
2023-07-02T02:25:22.211Z,70.58
2023-07-02T02:26:24.796Z,70.68
2023-07-02T02:27:26.997Z,70.59
2023-07-02T02:28:29.403Z,70.59
2023-07-02T02:29:31.770Z,70.64
2023-07-02T02:30:34.244Z,70.78
2023-07-02T02:31:37.689Z,70.90
2023-07-02T02:32:40.652Z,71.00
2023-07-02T02:33:45.257Z,71.24
2023-07-02T02:34:47.857Z,71.06
2023-07-02T02:35:51.459Z,71.00
2023-07-02T02:36:54.340Z,70.93
2023-07-02T02:37:57.470Z,70.89
2023-07-02T02:38:59.872Z,70.97
2023-07-02T02:40:02.746Z,70.99
2023-07-02T02:41:05.121Z,71.01
2023-07-02T02:42:11.194Z,71.06
2023-07-02T02:43:13.716Z,71.27
2023-07-02T02:44:15.963Z,71.20
2023-07-02T02:45:18.591Z,71.15
2023-07-02T02:46:22.343Z,71.20
2023-07-02T02:47:24.958Z,71.16
2023-07-02T02:48:27.249Z,71.24
2023-07-02T02:49:30.697Z,71.46
2023-07-02T02:50:33.093Z,71.40
2023-07-02T02:51:35.378Z,71.54
2023-07-02T02:52:37.607Z,71.48
2023-07-02T02:53:39.795Z,71.49
2023-07-02T02:54:42.495Z,71.33
2023-07-02T02:55:45.009Z,71.35
2023-07-02T02:56:47.838Z,71.42
2023-07-02T02:57:50.850Z,71.60
2023-07-02T02:58:53.244Z,71.66
2023-07-02T02:59:55.575Z,71.66
2023-07-02T03:00:58.084Z,71.93
2023-07-02T03:02:00.646Z,72.05
2023-07-02T03:03:03.242Z,72.09
2023-07-02T03:04:05.510Z,72.15
2023-07-02T03:05:08.543Z,72.06
2023-07-02T03:06:11.829Z,72.03
2023-07-02T03:07:14.180Z,72.00
2023-07-02T03:08:16.642Z,72.07
2023-07-02T03:09:19.690Z,71.92
2023-07-02T03:10:21.997Z,72.06
2023-07-02T03:11:24.370Z,72.11
2023-07-02T03:12:27.265Z,72.30
2023-07-02T03:13:29.718Z,72.27
2023-07-02T03:14:32.059Z,72.09
2023-07-02T03:15:34.532Z,72.30
2023-07-02T03:16:37.533Z,72.42
2023-07-02T03:17:39.774Z,72.54
2023-07-02T03:18:42.090Z,72.75
2023-07-02T03:19:44.423Z,72.70
2023-07-02T03:20:47.566Z,72.75
2023-07-02T03:21:50.073Z,72.71
2023-07-02T03:22:52.222Z,72.88
2023-07-02T03:23:54.454Z,72.81
2023-07-02T03:24:57.270Z,72.82
2023-07-02T03:25:59.570Z,72.92
2023-07-02T03:27:02.234Z,73.04
2023-07-02T03:28:04.598Z,73.03
2023-07-02T03:29:07.381Z,73.01
2023-07-02T03:30:10.590Z,72.93
2023-07-02T03:31:13.094Z,73.13
2023-07-02T03:32:15.389Z,73.07
2023-07-02T03:33:17.385Z,72.87
2023-07-02T03:34:20.055Z,72.86
2023-07-02T03:35:22.457Z,72.74
2023-07-02T03:36:24.756Z,72.93
2023-07-02T03:37:27.320Z,72.80
2023-07-02T03:38:31.530Z,72.75
2023-07-02T03:39:33.759Z,72.64
2023-07-02T03:40:36.277Z,72.86
2023-07-02T03:41:38.605Z,73.21
2023-07-02T03:42:41.849Z,73.18
2023-07-02T03:43:44.112Z,73.01
2023-07-02T03:44:46.561Z,72.88
2023-07-02T03:45:49.290Z,72.77
2023-07-02T03:46:51.786Z,73.02
2023-07-02T03:47:54.391Z,72.92
2023-07-02T03:48:56.541Z,72.79
2023-07-02T03:49:59.144Z,72.71
2023-07-02T03:51:02.330Z,72.80
2023-07-02T03:52:05.298Z,72.81
2023-07-02T03:53:10.435Z,72.79
2023-07-02T03:54:15.876Z,72.65
2023-07-02T03:55:18.153Z,72.54
2023-07-02T03:56:20.702Z,72.42
2023-07-02T03:57:22.962Z,72.43
2023-07-02T03:58:26.564Z,72.36
2023-07-02T03:59:33.181Z,72.52
2023-07-02T04:00:35.453Z,72.56
2023-07-02T04:01:37.781Z,72.59
2023-07-02T04:02:40.084Z,72.43
2023-07-02T04:03:50.589Z,72.83
2023-07-02T04:04:55.082Z,73.05
2023-07-02T04:05:57.957Z,72.72
2023-07-02T04:07:00.374Z,72.83
2023-07-02T04:08:02.679Z,72.62
2023-07-02T04:09:04.888Z,73.07
2023-07-02T04:10:08.352Z,73.01
2023-07-02T04:11:11.285Z,72.95
2023-07-02T04:12:14.078Z,72.73
2023-07-02T04:13:19.446Z,72.67
2023-07-02T04:14:25.292Z,72.59
2023-07-02T04:16:41.223Z,72.76
2023-07-02T04:17:43.610Z,72.85
2023-07-02T04:20:13.473Z,72.54
2023-07-02T04:21:20.572Z,72.75
2023-07-02T04:22:23.210Z,72.81
2023-07-02T04:23:26.421Z,72.87
2023-07-02T04:24:29.936Z,73.09
2023-07-02T04:27:04.376Z,73.16
2023-07-02T04:27:52.081Z,73.57
2023-07-02T04:28:54.881Z,73.35
2023-07-02T04:29:57.280Z,73.34
2023-07-02T04:31:00.160Z,73.58
2023-07-02T04:32:02.658Z,73.37
2023-07-02T04:33:05.084Z,73.19
2023-07-02T04:34:07.334Z,72.82
2023-07-02T04:35:10.255Z,72.52
2023-07-02T04:36:13.017Z,72.58
2023-07-02T04:37:15.693Z,72.70
2023-07-02T04:38:18.400Z,72.72
2023-07-02T04:39:21.033Z,72.79
2023-07-02T04:40:24.047Z,73.07
2023-07-02T04:41:27.266Z,72.96
2023-07-02T04:42:29.609Z,72.97
2023-07-02T04:43:32.642Z,72.93
2023-07-02T04:44:34.961Z,72.59
2023-07-02T04:45:37.405Z,72.40
2023-07-02T04:46:39.884Z,72.34
2023-07-02T04:47:43.858Z,72.38
2023-07-02T04:48:46.273Z,72.28
2023-07-02T04:49:48.520Z,72.63
2023-07-02T04:50:51.590Z,72.40
2023-07-02T04:51:54.594Z,72.33
2023-07-02T04:52:57.259Z,71.64
2023-07-02T04:53:59.504Z,71.98
2023-07-02T04:55:03.949Z,71.97
2023-07-02T04:56:08.588Z,71.62
2023-07-02T04:57:11.059Z,70.91
2023-07-02T04:58:13.248Z,70.68
2023-07-02T04:59:15.759Z,70.76
2023-07-02T05:00:18.607Z,70.16
2023-07-02T05:01:21.433Z,70.13
2023-07-02T05:02:23.970Z,70.72
2023-07-02T05:03:27.119Z,70.43
2023-07-02T05:04:29.503Z,70.17
2023-07-02T05:05:31.926Z,70.10
2023-07-02T05:06:34.230Z,70.07
2023-07-02T05:07:36.478Z,69.47
2023-07-02T05:08:39.170Z,69.08
2023-07-02T05:09:43.159Z,68.81
2023-07-02T05:10:46.125Z,68.04
2023-07-02T05:11:49.045Z,68.82
2023-07-02T05:12:51.520Z,68.40
2023-07-02T05:13:54.945Z,68.86
2023-07-02T05:14:57.317Z,67.69
2023-07-02T05:15:59.520Z,67.57
2023-07-02T05:17:01.863Z,68.85
2023-07-02T05:18:04.244Z,67.69
2023-07-02T05:19:06.699Z,67.56
2023-07-02T05:20:10.011Z,67.88
2023-07-02T05:21:12.452Z,68.16
2023-07-02T05:22:19.951Z,68.97
2023-07-02T05:23:22.415Z,68.90
2023-07-02T05:24:25.094Z,68.03
2023-07-02T05:25:27.421Z,68.19
2023-07-02T05:26:29.715Z,67.88
2023-07-02T05:27:31.858Z,67.82
2023-07-02T05:28:34.154Z,67.87
2023-07-02T05:29:39.392Z,68.92
2023-07-02T05:30:44.557Z,67.90
2023-07-02T05:31:47.925Z,67.66
2023-07-02T05:32:50.277Z,68.31
2023-07-02T05:33:53.256Z,68.92
2023-07-02T05:34:56.059Z,68.95
2023-07-02T05:35:58.610Z,68.89
2023-07-02T05:37:00.872Z,68.23
2023-07-02T05:38:03.745Z,68.08
2023-07-02T05:39:06.367Z,69.33
2023-07-02T05:40:10.431Z,68.52
2023-07-02T05:42:31.076Z,68.86
2023-07-02T05:43:33.825Z,69.33
2023-07-02T05:44:36.206Z,69.30
2023-07-02T05:45:38.425Z,69.13
2023-07-02T05:46:40.846Z,68.91
2023-07-02T05:47:43.224Z,68.23
2023-07-02T05:48:45.556Z,68.55
2023-07-02T05:49:48.132Z,67.01
2023-07-02T05:50:51.193Z,67.27
2023-07-02T05:51:53.874Z,67.16
2023-07-02T05:52:56.199Z,67.70
2023-07-02T05:53:58.674Z,66.46
2023-07-02T05:55:01.393Z,66.66
2023-07-02T05:56:04.433Z,66.52
2023-07-02T05:57:06.899Z,66.17
2023-07-02T05:58:10.261Z,67.36
2023-07-02T05:59:12.795Z,66.69
2023-07-02T06:00:15.913Z,67.42
2023-07-02T06:01:18.915Z,67.01
2023-07-02T06:02:21.367Z,66.50
2023-07-02T06:03:23.474Z,66.55
2023-07-02T06:04:26.461Z,66.26
2023-07-02T06:05:28.817Z,66.58
2023-07-02T06:06:31.941Z,66.58
2023-07-02T06:07:34.215Z,66.85
2023-07-02T06:08:37.455Z,65.97
2023-07-02T06:09:39.668Z,65.79
2023-07-02T06:10:43.069Z,65.75
2023-07-02T06:11:45.357Z,65.48
2023-07-02T06:12:47.629Z,66.12
2023-07-02T06:13:49.821Z,65.25
2023-07-02T06:14:52.276Z,65.21
2023-07-02T06:15:58.571Z,65.66
2023-07-02T06:17:01.273Z,66.25
2023-07-02T06:18:03.689Z,65.75
2023-07-02T06:19:06.985Z,66.37
2023-07-02T06:20:11.253Z,65.93
2023-07-02T06:21:13.613Z,66.14
2023-07-02T06:22:15.719Z,66.51
2023-07-02T06:23:17.985Z,66.56
2023-07-02T06:24:20.583Z,66.57
2023-07-02T06:25:23.112Z,66.36
2023-07-02T06:26:25.996Z,66.82
2023-07-02T06:27:28.853Z,66.48
2023-07-02T06:28:31.090Z,66.61
2023-07-02T06:29:33.369Z,66.23
2023-07-02T06:30:35.623Z,66.55
2023-07-02T06:31:37.987Z,67.07
2023-07-02T06:32:40.782Z,66.83
2023-07-02T06:33:42.862Z,66.55
2023-07-02T06:34:46.094Z,66.16
2023-07-02T06:36:58.693Z,66.78
2023-07-02T06:38:01.448Z,67.00
2023-07-02T06:39:03.892Z,66.19
2023-07-02T06:40:08.223Z,66.20
2023-07-02T06:41:10.588Z,65.71
2023-07-02T06:42:13.456Z,66.25
2023-07-02T06:43:16.374Z,65.91
2023-07-02T06:44:19.015Z,65.14
2023-07-02T06:45:21.799Z,64.77
2023-07-02T06:46:24.260Z,62.91
2023-07-02T06:47:27.142Z,63.38
2023-07-02T06:48:29.628Z,64.20
2023-07-02T06:49:32.032Z,64.00
2023-07-02T06:50:34.406Z,63.78
2023-07-02T06:51:36.845Z,62.71
2023-07-02T06:52:39.467Z,63.44
2023-07-02T06:53:42.675Z,63.65
2023-07-02T06:54:46.940Z,63.87
2023-07-02T06:55:49.078Z,64.01
2023-07-02T06:56:51.334Z,63.70
2023-07-02T06:57:53.525Z,63.04
2023-07-02T06:58:55.810Z,63.47
2023-07-02T06:59:59.215Z,63.59
2023-07-02T07:01:01.591Z,63.03
2023-07-02T07:02:04.763Z,62.22
2023-07-02T07:03:07.494Z,63.26
2023-07-02T07:04:09.954Z,62.91
2023-07-02T07:05:12.414Z,63.02
2023-07-02T07:06:14.829Z,62.57
2023-07-02T07:07:17.041Z,61.87
2023-07-02T07:08:19.124Z,62.55
2023-07-02T07:09:21.761Z,62.13
2023-07-02T07:10:24.154Z,61.43
2023-07-02T07:11:26.475Z,60.10
2023-07-02T07:12:28.977Z,60.86
2023-07-02T07:13:31.973Z,61.70
2023-07-02T07:14:34.179Z,60.95
2023-07-02T07:15:37.013Z,61.45
2023-07-02T07:16:41.544Z,61.48
2023-07-02T07:17:44.154Z,62.25
2023-07-02T07:18:46.644Z,61.39
2023-07-02T07:19:49.205Z,61.29
2023-07-02T07:20:52.037Z,60.78
2023-07-02T07:21:54.776Z,61.17
2023-07-02T07:22:58.552Z,61.72
2023-07-02T07:24:01.461Z,61.56
2023-07-02T07:25:04.084Z,62.78
2023-07-02T07:26:07.098Z,60.21
2023-07-02T07:27:10.052Z,59.54
2023-07-02T07:28:12.778Z,60.78
2023-07-02T07:29:15.328Z,59.63
2023-07-02T07:30:17.931Z,59.41
2023-07-02T07:31:20.765Z,58.69
2023-07-02T07:32:23.980Z,58.53
2023-07-02T07:33:26.915Z,59.29
2023-07-02T07:34:29.125Z,60.49
2023-07-02T07:35:31.277Z,60.80
2023-07-02T07:36:33.811Z,60.45
2023-07-02T07:37:36.548Z,58.55
2023-07-02T07:38:39.234Z,59.05
2023-07-02T07:39:42.129Z,60.72
2023-07-02T07:40:44.980Z,60.31
2023-07-02T07:41:47.744Z,59.39
2023-07-02T07:42:50.332Z,58.67
2023-07-02T07:43:52.573Z,57.78
2023-07-02T07:44:54.735Z,57.87
2023-07-02T07:45:57.151Z,59.40
2023-07-02T07:46:59.473Z,59.99
2023-07-02T07:48:02.657Z,59.54
2023-07-02T07:49:04.995Z,58.05
2023-07-02T07:50:08.635Z,58.31
2023-07-02T07:51:11.245Z,55.95
2023-07-02T07:52:13.462Z,55.38
2023-07-02T07:53:15.699Z,54.29
2023-07-02T07:54:18.030Z,54.02
2023-07-02T07:55:20.262Z,55.11
2023-07-02T07:56:23.132Z,55.92
2023-07-02T07:57:25.228Z,54.68
2023-07-02T07:58:27.478Z,56.07
2023-07-02T07:59:29.729Z,56.36
2023-07-02T08:00:32.653Z,55.87
2023-07-02T08:01:36.677Z,56.21
2023-07-02T08:02:38.940Z,57.42
2023-07-02T08:03:41.252Z,57.16
2023-07-02T08:04:43.547Z,56.88
2023-07-02T08:05:45.703Z,57.08
2023-07-02T08:06:47.847Z,57.50
2023-07-02T08:07:49.979Z,55.80
2023-07-02T08:08:52.263Z,56.55
2023-07-02T08:09:54.943Z,56.77
2023-07-02T08:10:57.626Z,55.77
2023-07-02T08:12:00.164Z,56.16
2023-07-02T08:13:02.456Z,54.41
2023-07-02T08:14:05.199Z,55.04
2023-07-02T08:15:09.094Z,55.29
2023-07-02T08:16:12.106Z,55.31
2023-07-02T08:17:14.874Z,55.98
2023-07-02T08:18:17.002Z,54.39
2023-07-02T08:19:19.799Z,54.86
2023-07-02T08:20:22.260Z,54.02
2023-07-02T08:21:24.474Z,55.14
2023-07-02T08:22:26.795Z,55.42
2023-07-02T08:23:29.481Z,54.67
2023-07-02T08:24:31.717Z,55.66
2023-07-02T08:25:34.514Z,55.78
2023-07-02T08:26:37.033Z,54.34
2023-07-02T08:27:39.522Z,54.77
2023-07-02T08:28:41.729Z,55.32
2023-07-02T08:29:43.910Z,55.35
2023-07-02T08:30:46.597Z,54.88
2023-07-02T08:31:49.162Z,55.89
2023-07-02T08:32:51.511Z,55.41
2023-07-02T08:33:54.791Z,54.18
2023-07-02T08:34:57.137Z,54.50
2023-07-02T08:35:59.389Z,54.67
2023-07-02T08:37:01.647Z,54.54
2023-07-02T08:38:03.844Z,54.76
2023-07-02T08:39:05.976Z,55.10
2023-07-02T08:40:17.155Z,55.11
2023-07-02T08:41:21.689Z,55.45
2023-07-02T08:42:24.294Z,54.33
2023-07-02T08:43:26.945Z,54.45
2023-07-02T08:44:29.154Z,53.72
2023-07-02T08:45:32.033Z,54.22
2023-07-02T08:46:34.862Z,54.19
2023-07-02T08:47:37.725Z,54.12
2023-07-02T08:48:40.149Z,54.71
2023-07-02T08:49:42.709Z,54.73
2023-07-02T08:50:45.599Z,54.45
2023-07-02T08:51:48.656Z,54.25
2023-07-02T08:52:52.942Z,54.24
2023-07-02T08:53:55.414Z,54.76
2023-07-02T08:54:58.178Z,52.73
2023-07-02T08:56:02.351Z,53.69
2023-07-02T08:57:05.739Z,53.77
2023-07-02T08:58:08.184Z,52.59
2023-07-02T08:59:10.402Z,52.97
2023-07-02T09:00:13.790Z,53.73
2023-07-02T09:01:16.786Z,52.86
2023-07-02T09:02:22.671Z,51.53
2023-07-02T09:03:26.382Z,51.77
2023-07-02T09:04:28.856Z,52.41
2023-07-02T09:05:31.219Z,52.64
2023-07-02T09:06:34.051Z,52.17
2023-07-02T09:09:04.233Z,52.72
2023-07-02T09:10:07.903Z,53.57
2023-07-02T09:11:14.156Z,52.92
2023-07-02T09:12:32.782Z,54.31
2023-07-02T09:13:51.108Z,51.36
2023-07-02T09:14:57.913Z,50.89
2023-07-02T09:16:00.163Z,52.10
2023-07-02T09:17:09.443Z,52.13
2023-07-02T09:18:19.777Z,52.29
2023-07-02T09:19:22.607Z,51.25
2023-07-02T09:20:28.528Z,51.72
2023-07-02T09:21:45.939Z,53.80
2023-07-02T09:22:56.471Z,53.45
2023-07-02T09:23:59.400Z,51.30
2023-07-02T09:25:02.876Z,51.74
2023-07-02T09:26:05.526Z,51.73
2023-07-02T09:27:08.934Z,52.27
2023-07-02T09:28:19.504Z,54.94
2023-07-02T09:30:40.366Z,52.89
2023-07-02T09:32:07.968Z,54.01
2023-07-02T09:32:53.680Z,51.43
2023-07-02T09:34:04.182Z,51.13
2023-07-02T09:35:07.121Z,51.83
2023-07-02T09:36:11.816Z,51.03
2023-07-02T09:37:14.154Z,51.15
2023-07-02T09:38:17.116Z,51.07
2023-07-02T09:39:28.312Z,49.39
2023-07-02T09:40:31.275Z,47.85
2023-07-02T09:41:33.807Z,48.48
2023-07-02T09:42:38.682Z,49.35
2023-07-02T09:43:41.034Z,50.62
2023-07-02T09:44:44.251Z,51.31
2023-07-02T09:45:50.548Z,52.86
2023-07-02T09:47:08.059Z,51.51
2023-07-02T09:48:16.137Z,51.64
2023-07-02T09:49:21.033Z,52.08
2023-07-02T09:50:23.780Z,51.53
2023-07-02T09:51:26.567Z,49.73
2023-07-02T09:52:29.576Z,51.09
2023-07-02T09:53:33.399Z,48.89
2023-07-02T09:54:38.132Z,49.98
2023-07-02T09:55:42.847Z,48.19
2023-07-02T09:56:46.200Z,47.10
2023-07-02T09:57:48.515Z,48.64
2023-07-02T09:58:50.822Z,47.59
2023-07-02T09:59:53.388Z,45.68
2023-07-02T10:00:55.788Z,46.54
2023-07-02T10:01:58.664Z,46.53
2023-07-02T10:03:00.983Z,47.07
2023-07-02T10:04:14.308Z,47.27
2023-07-02T10:06:49.729Z,45.75
2023-07-02T10:07:52.639Z,47.82
2023-07-02T10:08:56.819Z,47.67
2023-07-02T10:09:59.805Z,46.23
2023-07-02T10:11:13.300Z,47.00
2023-07-02T10:12:24.874Z,48.66
2023-07-02T10:13:28.125Z,46.62
2023-07-02T10:14:43.902Z,45.72
2023-07-02T10:15:46.169Z,46.30
2023-07-02T10:18:02.758Z,46.41
2023-07-02T10:19:12.420Z,45.19
2023-07-02T10:20:15.693Z,45.11
2023-07-02T10:21:18.318Z,45.05
2023-07-02T10:22:20.624Z,44.98
2023-07-02T10:23:34.544Z,47.30
2023-07-02T10:24:36.833Z,45.75
2023-07-02T10:25:40.192Z,44.65
2023-07-02T10:27:02.462Z,46.08
2023-07-02T10:28:21.711Z,46.55
2023-07-02T10:29:25.521Z,46.59
2023-07-02T10:30:33.748Z,47.10
2023-07-02T10:31:36.067Z,46.90
2023-07-02T10:32:38.888Z,44.92
2023-07-02T10:33:44.182Z,45.53
2023-07-02T10:34:46.547Z,45.12
2023-07-02T10:35:50.344Z,44.88
2023-07-02T10:36:56.671Z,45.42
2023-07-02T10:37:59.395Z,45.54
2023-07-02T10:39:02.874Z,44.88
2023-07-02T10:41:29.797Z,44.65
2023-07-02T10:42:32.453Z,44.09
2023-07-02T10:43:34.559Z,43.66
2023-07-02T10:46:00.283Z,45.32
2023-07-02T10:47:04.999Z,44.63
2023-07-02T10:48:10.497Z,44.32
2023-07-02T10:49:12.951Z,45.27
2023-07-02T10:50:21.026Z,45.62
2023-07-02T10:51:23.989Z,44.66
2023-07-02T10:52:26.795Z,44.89
2023-07-02T10:53:29.614Z,44.20
2023-07-02T10:54:43.567Z,44.20
2023-07-02T10:55:46.707Z,43.98
2023-07-02T10:56:49.230Z,44.96
2023-07-02T10:58:03.878Z,44.47
2023-07-02T10:59:06.067Z,46.14
2023-07-02T11:00:10.575Z,43.67
2023-07-02T11:01:12.931Z,44.07
2023-07-02T11:02:16.216Z,43.65
2023-07-02T11:03:23.486Z,43.93
2023-07-02T11:04:25.925Z,44.06
2023-07-02T11:05:30.106Z,45.13
2023-07-02T11:06:33.540Z,44.84
2023-07-02T11:07:35.695Z,44.95
2023-07-02T11:08:37.947Z,46.06
2023-07-02T11:09:40.071Z,43.37
2023-07-02T11:10:42.576Z,44.19
2023-07-02T11:13:19.929Z,43.74
2023-07-02T11:14:36.140Z,43.51
2023-07-02T11:15:38.929Z,41.50
2023-07-02T11:16:42.076Z,44.11
2023-07-02T11:17:44.491Z,40.07
2023-07-02T11:18:47.267Z,39.77
2023-07-02T11:19:52.219Z,40.65
2023-07-02T11:20:55.211Z,40.16
2023-07-02T11:21:59.078Z,40.64
2023-07-02T11:23:01.850Z,40.67
2023-07-02T11:24:08.799Z,40.52
2023-07-02T11:25:20.440Z,39.33
2023-07-02T11:26:22.978Z,39.81
2023-07-02T11:27:25.366Z,40.87
2023-07-02T11:28:29.202Z,41.12
2023-07-02T11:29:32.916Z,41.06
2023-07-02T11:30:39.425Z,40.88
2023-07-02T11:31:42.459Z,40.72
2023-07-02T11:32:55.732Z,41.04
2023-07-02T11:33:58.753Z,41.77
2023-07-02T11:35:00.969Z,42.42
2023-07-02T11:36:07.501Z,42.78
2023-07-02T11:37:09.648Z,41.90
2023-07-02T11:38:12.277Z,42.30
2023-07-02T11:39:14.633Z,42.93
2023-07-02T11:40:18.690Z,42.67
2023-07-02T11:41:22.199Z,42.60
2023-07-02T11:42:24.746Z,42.20
2023-07-02T11:43:26.973Z,43.73
2023-07-02T11:44:29.138Z,43.16
2023-07-02T11:45:31.317Z,42.96
2023-07-02T11:46:34.112Z,42.43
2023-07-02T11:47:39.212Z,42.08
2023-07-02T11:48:41.496Z,42.00
2023-07-02T11:49:44.155Z,41.01
2023-07-02T11:50:46.815Z,41.16
2023-07-02T11:51:49.000Z,40.95
2023-07-02T11:52:51.185Z,40.94
2023-07-02T11:53:53.521Z,41.11
2023-07-02T11:54:55.748Z,41.11
2023-07-02T11:55:57.947Z,41.38
2023-07-02T11:57:01.089Z,42.05
2023-07-02T11:58:03.708Z,41.90
2023-07-02T11:59:05.947Z,41.45
2023-07-02T12:00:10.281Z,42.09
2023-07-02T12:01:12.405Z,40.39
2023-07-02T12:02:14.697Z,40.53
2023-07-02T12:03:17.130Z,40.15
2023-07-02T12:04:20.465Z,39.19
2023-07-02T12:05:23.189Z,39.52
2023-07-02T12:06:26.579Z,40.72
2023-07-02T12:07:28.945Z,41.32
2023-07-02T12:08:31.382Z,43.07
2023-07-02T12:09:34.222Z,40.76
2023-07-02T12:10:38.619Z,40.19
2023-07-02T12:11:41.814Z,40.49
2023-07-02T12:12:44.153Z,40.55
2023-07-02T12:13:46.672Z,40.84
2023-07-02T12:14:48.877Z,41.13
2023-07-02T12:15:51.340Z,41.53
2023-07-02T12:16:54.478Z,42.44
2023-07-02T12:17:56.983Z,42.06
2023-07-02T12:18:59.375Z,39.96
2023-07-02T12:20:01.563Z,41.00
2023-07-02T12:21:03.982Z,39.92
2023-07-02T12:22:06.852Z,38.57
2023-07-02T12:23:09.261Z,38.75
2023-07-02T12:24:11.662Z,39.20
2023-07-02T12:25:14.481Z,38.48
2023-07-02T12:26:16.795Z,38.45
2023-07-02T12:27:19.102Z,38.57
2023-07-02T12:28:21.796Z,39.08
2023-07-02T12:29:24.574Z,40.49
2023-07-02T12:30:27.427Z,39.36
2023-07-02T12:31:30.752Z,39.05
2023-07-02T12:32:33.116Z,38.96
2023-07-02T12:33:35.808Z,39.31
2023-07-02T12:34:37.866Z,39.49
2023-07-02T12:35:40.389Z,39.36
2023-07-02T12:36:42.724Z,39.62
2023-07-02T12:37:53.664Z,39.82
2023-07-02T12:38:55.958Z,40.37
2023-07-02T12:39:58.298Z,40.08
2023-07-02T12:41:01.094Z,40.46
2023-07-02T12:42:03.776Z,40.93
2023-07-02T12:43:06.462Z,39.99
2023-07-02T12:44:08.735Z,40.17
2023-07-02T12:45:13.097Z,41.37
2023-07-02T12:46:16.148Z,42.28
2023-07-02T12:47:18.750Z,43.03
2023-07-02T12:48:21.122Z,43.49
2023-07-02T12:49:23.919Z,42.94
2023-07-02T12:50:26.310Z,43.67
2023-07-02T12:51:29.002Z,43.80
2023-07-02T12:52:31.194Z,43.46
2023-07-02T12:53:33.984Z,43.76
2023-07-02T12:54:36.352Z,44.09
2023-07-02T12:55:38.937Z,44.77
2023-07-02T12:56:42.610Z,44.94
2023-07-02T12:57:44.865Z,45.40
2023-07-02T12:58:46.905Z,45.36
2023-07-02T12:59:49.678Z,46.14
2023-07-02T13:00:51.974Z,46.31
2023-07-02T13:01:54.163Z,46.14
2023-07-02T13:03:04.678Z,46.28
2023-07-02T13:04:00.855Z,46.32
2023-07-02T13:05:05.207Z,46.47
2023-07-02T13:06:08.279Z,47.01
2023-07-02T13:07:11.036Z,47.79
2023-07-02T13:08:13.888Z,48.11
2023-07-02T13:09:16.216Z,48.02
2023-07-02T13:10:19.121Z,49.10
2023-07-02T13:11:21.492Z,50.11
2023-07-02T13:12:24.494Z,51.54
2023-07-02T13:13:29.042Z,52.80
2023-07-02T13:14:30.858Z,54.94
2023-07-02T13:15:33.057Z,55.12
2023-07-02T13:16:35.363Z,56.66
2023-07-02T13:17:37.872Z,56.52
2023-07-02T13:18:40.320Z,57.66
2023-07-02T13:19:42.966Z,57.69
2023-07-02T13:20:45.891Z,60.12
2023-07-02T13:21:49.782Z,56.46
2023-07-02T13:22:53.109Z,56.05
2023-07-02T13:23:55.330Z,57.88
2023-07-02T13:24:57.532Z,58.30
2023-07-02T13:25:59.554Z,57.77
2023-07-02T13:27:05.286Z,57.47
2023-07-02T13:28:07.909Z,56.38
2023-07-02T13:29:10.184Z,56.36
2023-07-02T13:30:13.105Z,57.48
2023-07-02T13:31:15.791Z,53.40
2023-07-02T13:32:19.044Z,53.37
2023-07-02T13:33:21.272Z,51.97
2023-07-02T13:34:23.957Z,51.64
2023-07-02T13:35:26.280Z,52.79
2023-07-02T13:36:28.496Z,53.56
2023-07-02T13:37:30.806Z,52.58
2023-07-02T13:38:33.016Z,54.55
2023-07-02T13:39:35.302Z,55.23
2023-07-02T13:40:37.549Z,54.31
2023-07-02T13:41:40.401Z,53.49
2023-07-02T13:42:43.236Z,52.88
2023-07-02T13:43:45.933Z,53.83
2023-07-02T13:44:49.084Z,52.48
2023-07-02T13:45:51.864Z,52.53
2023-07-02T13:46:54.715Z,52.57
2023-07-02T13:47:57.626Z,51.62
2023-07-02T13:48:59.799Z,52.34
2023-07-02T13:50:02.520Z,54.35
2023-07-02T13:51:05.186Z,54.23
2023-07-02T13:52:08.086Z,52.08
2023-07-02T13:53:10.887Z,52.84